Prairie Lea, Texas
Current Conditions -  °F | °C
As of 12:52 PM on Monday 20 Oct 2014 (Local Time) from KHYI Reporting Station
Scattered Clouds Scattered Clouds  
Wind Chill: 79°   Ceiling: Unl
Heat Index: 80°   Visibility: 10mi
Dew Point: 57°   Wind: 0mph
Humidity: 47%   Direction: NA
Pressure: 30.07"   Gusts: NA
Location:  29.73°N, 97.75°W
Report Text: KHYI 201752Z 00000KT 10SM FEW037 SCT075 26/14 A3007
Loading
Personal Weather Stations






























Interactive Weather Map
Tropical Storm Tracking
New forecast layout! Learn more

10-Day Weather Forecast

Advertisements
Track Severe Weather on mobile